createdAt,value
2019-04-30T00:00:45.483Z,18.93
2019-04-30T00:03:46.281Z,17.83
2019-04-30T00:06:18.613Z,18.37
2019-04-30T00:08:48.743Z,19.00
2019-04-30T00:11:19.615Z,19.77
2019-04-30T00:13:54.609Z,18.60
2019-04-30T00:16:22.241Z,19.20
2019-04-30T00:18:58.243Z,17.97
2019-04-30T00:21:25.523Z,19.27
2019-04-30T00:23:56.187Z,19.37
2019-04-30T00:26:26.968Z,18.97
2019-04-30T00:28:57.240Z,18.37
2019-04-30T00:31:28.000Z,19.43
2019-04-30T00:34:01.390Z,20.40
2019-04-30T00:36:34.090Z,19.97
2019-04-30T00:39:02.404Z,19.53
2019-04-30T00:41:35.362Z,20.20
2019-04-30T00:44:06.265Z,18.80
2019-04-30T00:46:36.542Z,18.90
2019-04-30T00:49:11.294Z,18.60
2019-04-30T00:51:38.653Z,19.23
2019-04-30T00:54:08.824Z,18.43
2019-04-30T00:56:39.446Z,19.43
2019-04-30T00:59:10.666Z,17.60
2019-04-30T01:02:06.546Z,18.20
2019-04-30T01:04:44.971Z,16.97
2019-04-30T01:07:16.390Z,18.20
2019-04-30T01:09:49.708Z,18.00
2019-04-30T01:12:27.667Z,18.37
2019-04-30T01:14:50.946Z,18.20
2019-04-30T01:17:21.236Z,19.00
2019-04-30T01:19:54.506Z,17.33
2019-04-30T01:22:28.014Z,18.23
2019-04-30T01:24:56.494Z,17.40
2019-04-30T01:27:28.338Z,18.50
2019-04-30T01:30:00.149Z,18.73
2019-04-30T01:32:30.424Z,19.57
2019-04-30T01:35:00.613Z,18.57
2019-04-30T01:37:32.847Z,19.50
2019-04-30T01:40:10.541Z,18.27
2019-04-30T01:42:35.908Z,19.50
2019-04-30T01:45:08.676Z,18.90
2019-04-30T01:47:39.679Z,19.97
2019-04-30T01:50:10.753Z,19.13
2019-04-30T01:52:53.134Z,17.97
2019-04-30T01:55:41.544Z,18.47
2019-04-30T01:58:30.164Z,20.20
2019-04-30T02:01:04.708Z,18.53
2019-04-30T02:03:34.920Z,19.13
2019-04-30T02:06:05.115Z,17.93
2019-04-30T02:08:35.309Z,18.80
2019-04-30T02:11:05.894Z,16.77
2019-04-30T02:13:36.177Z,16.60
2019-04-30T02:16:06.438Z,15.77
2019-04-30T02:18:37.076Z,16.33
2019-04-30T02:21:08.968Z,16.37
2019-04-30T02:23:39.314Z,16.97
2019-04-30T02:26:09.618Z,14.67
2019-04-30T02:28:40.219Z,14.50
2019-04-30T02:31:10.765Z,13.30
2019-04-30T02:33:42.918Z,14.27
2019-04-30T02:36:34.792Z,13.60
2019-04-30T02:39:06.340Z,13.63
2019-04-30T02:41:41.235Z,12.93
2019-04-30T02:44:11.051Z,13.30
2019-04-30T02:46:43.569Z,13.00
2019-04-30T02:49:15.382Z,13.57
2019-04-30T02:51:49.734Z,13.03
2019-04-30T02:54:24.662Z,12.90
2019-04-30T02:57:00.037Z,11.90
2019-04-30T02:59:30.306Z,11.27
2019-04-30T03:02:00.541Z,11.47
2019-04-30T03:04:31.052Z,11.27
2019-04-30T03:07:01.321Z,11.13
2019-04-30T03:09:32.502Z,10.53
2019-04-30T03:12:03.278Z,11.80
2019-04-30T03:14:33.591Z,10.40
2019-04-30T03:17:29.374Z,10.23
2019-04-30T03:20:35.712Z,9.27
2019-04-30T03:23:02.454Z,9.47
2019-04-30T03:25:31.647Z,10.80
2019-04-30T03:28:01.864Z,10.63
2019-04-30T03:30:32.512Z,10.23
2019-04-30T03:33:03.427Z,11.37
2019-04-30T03:35:33.846Z,12.40
2019-04-30T03:38:04.106Z,12.70
2019-04-30T03:40:34.280Z,11.90
2019-04-30T03:43:04.508Z,11.63
2019-04-30T03:45:34.728Z,11.63
2019-04-30T03:48:05.122Z,12.03
2019-04-30T03:50:49.198Z,11.50
2019-04-30T03:53:07.200Z,11.20
2019-04-30T03:55:39.902Z,11.60
2019-04-30T03:58:11.267Z,11.40
2019-04-30T04:01:00.422Z,10.90
2019-04-30T04:03:31.990Z,11.43
2019-04-30T04:06:21.526Z,10.10
2019-04-30T04:09:01.320Z,10.23
2019-04-30T04:11:36.580Z,9.57
2019-04-30T04:14:09.342Z,10.73
2019-04-30T04:16:41.752Z,10.10
2019-04-30T04:19:11.961Z,11.30
2019-04-30T04:21:42.554Z,10.57
2019-04-30T04:24:12.801Z,9.50
2019-04-30T04:26:44.439Z,10.57
2019-04-30T04:29:14.704Z,10.67
2019-04-30T04:31:44.916Z,11.53
2019-04-30T04:34:15.107Z,10.30
2019-04-30T04:36:45.415Z,10.30
2019-04-30T04:39:15.665Z,10.93
2019-04-30T04:41:46.597Z,10.87
2019-04-30T04:44:19.681Z,10.20
2019-04-30T04:46:50.339Z,10.53
2019-04-30T04:49:20.959Z,10.27
2019-04-30T04:51:51.257Z,10.17
2019-04-30T04:54:21.896Z,9.93
2019-04-30T04:56:54.758Z,10.37
2019-04-30T04:59:24.545Z,10.80
2019-04-30T05:01:55.084Z,9.40
2019-04-30T05:04:25.271Z,10.50
2019-04-30T05:06:55.899Z,11.43
2019-04-30T05:09:26.084Z,9.47
2019-04-30T05:11:56.280Z,10.60
2019-04-30T05:14:28.691Z,10.47
2019-04-30T05:16:58.766Z,10.87
2019-04-30T05:19:29.028Z,10.17
2019-04-30T05:21:59.684Z,10.27
2019-04-30T05:24:30.957Z,9.63
2019-04-30T05:27:01.200Z,10.07
2019-04-30T05:29:31.680Z,9.70
2019-04-30T05:32:01.898Z,9.50
2019-04-30T05:34:32.066Z,9.43
2019-04-30T05:37:02.252Z,9.23
2019-04-30T05:39:32.484Z,9.87
2019-04-30T05:42:03.085Z,10.97
2019-04-30T05:44:33.254Z,10.60
2019-04-30T05:47:03.472Z,9.67
2019-04-30T05:49:33.591Z,9.83
2019-04-30T05:52:03.786Z,10.50
2019-04-30T05:54:33.996Z,10.43
2019-04-30T05:57:04.220Z,10.83
2019-04-30T05:59:34.476Z,10.90
2019-04-30T06:02:04.806Z,10.97
2019-04-30T06:04:35.119Z,10.43
2019-04-30T06:07:05.337Z,10.80
2019-04-30T06:09:54.051Z,11.47
2019-04-30T06:12:49.461Z,12.03
2019-04-30T06:15:36.231Z,12.00
2019-04-30T06:18:13.485Z,12.93
2019-04-30T06:20:38.778Z,12.13
2019-04-30T06:23:09.533Z,11.83
2019-04-30T06:25:55.580Z,13.33
2019-04-30T06:28:13.255Z,12.90
2019-04-30T06:30:43.433Z,12.73
2019-04-30T06:33:13.993Z,13.67
2019-04-30T06:35:44.190Z,12.97
2019-04-30T06:38:14.457Z,13.70
2019-04-30T06:40:44.693Z,14.10
2019-04-30T06:43:14.905Z,14.20
2019-04-30T06:45:46.232Z,14.37
2019-04-30T06:48:20.415Z,14.60
2019-04-30T06:50:50.627Z,13.87
2019-04-30T06:53:20.917Z,14.67
2019-04-30T06:55:51.169Z,13.87
2019-04-30T06:58:21.389Z,14.27
2019-04-30T07:00:51.508Z,13.57
2019-04-30T07:03:21.797Z,14.43
2019-04-30T07:05:52.000Z,13.20
2019-04-30T07:08:55.519Z,13.60
2019-04-30T07:11:26.146Z,12.50
2019-04-30T07:13:57.081Z,12.30
2019-04-30T07:16:27.253Z,13.23
2019-04-30T07:18:58.651Z,13.53
2019-04-30T07:21:31.216Z,13.40
2019-04-30T07:24:00.965Z,12.90
2019-04-30T07:26:31.149Z,12.97
2019-04-30T07:29:02.596Z,14.43
2019-04-30T07:31:32.947Z,13.17
2019-04-30T07:34:03.258Z,14.57
2019-04-30T07:36:45.713Z,14.13
2019-04-30T07:39:09.821Z,13.83
2019-04-30T07:41:40.235Z,15.30
2019-04-30T07:44:16.711Z,14.73
2019-04-30T07:46:45.217Z,14.77
2019-04-30T07:49:15.214Z,15.10
2019-04-30T07:51:46.321Z,16.87
2019-04-30T07:54:18.821Z,14.27
2019-04-30T07:56:50.685Z,15.00
2019-04-30T07:59:21.223Z,14.40
2019-04-30T08:02:04.062Z,14.53
2019-04-30T08:04:40.887Z,14.20
2019-04-30T08:07:11.190Z,13.17
2019-04-30T08:09:42.294Z,14.27
2019-04-30T08:12:21.975Z,15.00
2019-04-30T08:14:44.761Z,15.03
2019-04-30T08:17:14.926Z,14.30
2019-04-30T08:19:45.131Z,15.23
2019-04-30T08:22:15.327Z,13.87
2019-04-30T08:24:45.579Z,14.70
2019-04-30T08:27:15.768Z,15.43
2019-04-30T08:29:45.972Z,14.13
2019-04-30T08:32:16.228Z,15.30
2019-04-30T08:34:46.611Z,16.03
2019-04-30T08:37:18.142Z,14.97
2019-04-30T08:39:49.682Z,15.40
2019-04-30T08:42:30.747Z,16.17
2019-04-30T08:44:52.136Z,16.40
2019-04-30T08:47:22.256Z,15.67
2019-04-30T08:49:52.592Z,15.30
2019-04-30T08:52:23.151Z,16.50
2019-04-30T08:54:53.560Z,15.40
2019-04-30T08:57:23.821Z,16.63
2019-04-30T08:59:54.060Z,17.23
2019-04-30T09:02:24.526Z,16.77
2019-04-30T09:05:00.258Z,16.10
2019-04-30T09:07:30.017Z,17.30
2019-04-30T09:10:01.243Z,16.50
2019-04-30T09:12:32.172Z,17.63
2019-04-30T09:15:02.419Z,17.20
2019-04-30T09:17:33.291Z,16.57
2019-04-30T09:20:03.642Z,15.67
2019-04-30T09:22:33.826Z,16.17
2019-04-30T09:25:04.305Z,15.93
2019-04-30T09:27:35.012Z,16.60
2019-04-30T09:30:06.525Z,16.33
2019-04-30T09:32:36.780Z,17.17
2019-04-30T09:35:07.204Z,18.57
2019-04-30T09:37:39.420Z,17.03
2019-04-30T09:40:18.006Z,17.63
2019-04-30T09:42:42.244Z,18.07
2019-04-30T09:45:12.466Z,16.17
2019-04-30T09:47:43.021Z,16.63
2019-04-30T09:50:13.710Z,17.70
2019-04-30T09:52:44.264Z,18.03
2019-04-30T09:55:15.432Z,16.27
2019-04-30T09:57:45.669Z,15.63
2019-04-30T10:00:16.685Z,16.13
2019-04-30T10:02:48.738Z,17.30
2019-04-30T10:05:19.827Z,17.63
2019-04-30T10:07:51.502Z,17.67
2019-04-30T10:10:28.795Z,17.90
2019-04-30T10:12:59.355Z,18.37
2019-04-30T10:15:59.759Z,17.63
2019-04-30T10:18:29.930Z,18.10
2019-04-30T10:21:00.927Z,17.63
2019-04-30T10:23:31.266Z,18.03
2019-04-30T10:26:01.464Z,18.23
2019-04-30T10:28:33.538Z,18.47
2019-04-30T10:31:03.872Z,18.90
2019-04-30T10:33:34.337Z,18.57
2019-04-30T10:36:04.996Z,19.47
2019-04-30T10:38:35.200Z,17.47
2019-04-30T10:41:06.232Z,16.67
2019-04-30T10:43:38.962Z,18.07
2019-04-30T10:46:09.662Z,16.97
2019-04-30T10:48:40.166Z,18.97
2019-04-30T10:51:11.170Z,18.60
2019-04-30T10:53:41.345Z,19.10
2019-04-30T10:56:12.741Z,19.33
2019-04-30T10:58:43.008Z,17.77
2019-04-30T11:01:13.307Z,18.67
2019-04-30T11:03:43.514Z,19.23
2019-04-30T11:06:13.835Z,19.13
2019-04-30T11:08:44.482Z,18.40
2019-04-30T11:11:15.067Z,19.97
2019-04-30T11:13:45.833Z,20.70
2019-04-30T11:16:16.069Z,21.77
2019-04-30T11:18:46.757Z,22.23
2019-04-30T11:21:19.427Z,21.83
2019-04-30T11:23:49.842Z,22.60
2019-04-30T11:26:20.641Z,22.23
2019-04-30T11:28:51.698Z,21.67
2019-04-30T11:31:47.472Z,22.60
2019-04-30T11:34:17.809Z,21.27
2019-04-30T11:36:48.145Z,20.87
2019-04-30T11:39:21.602Z,21.93
2019-04-30T11:41:51.907Z,22.03
2019-04-30T11:44:30.813Z,21.87
2019-04-30T11:47:35.365Z,22.27
2019-04-30T11:50:12.489Z,22.33
2019-04-30T11:52:43.159Z,23.00
2019-04-30T11:55:13.979Z,22.00
2019-04-30T11:57:44.258Z,22.23
2019-04-30T12:00:20.351Z,23.83
2019-04-30T12:02:52.846Z,22.13
2019-04-30T12:05:22.632Z,22.73
2019-04-30T12:08:05.288Z,22.40
2019-04-30T12:10:49.418Z,24.07
2019-04-30T12:13:30.385Z,23.23
2019-04-30T12:16:01.118Z,23.03
2019-04-30T12:18:31.351Z,22.57
2019-04-30T12:21:01.561Z,22.93
2019-04-30T12:23:31.836Z,22.30
2019-04-30T12:26:03.214Z,22.70
2019-04-30T12:28:33.438Z,24.43
2019-04-30T12:31:05.873Z,24.47
2019-04-30T12:33:35.834Z,22.33
2019-04-30T12:36:06.495Z,23.73
2019-04-30T12:38:36.825Z,24.60
2019-04-30T12:41:07.014Z,24.13
2019-04-30T12:43:37.183Z,23.40
2019-04-30T12:46:08.002Z,23.70
2019-04-30T12:48:43.674Z,23.63
2019-04-30T12:51:51.717Z,23.93
2019-04-30T12:54:36.362Z,23.57
2019-04-30T12:57:32.032Z,22.63
2019-04-30T13:00:02.721Z,23.27
2019-04-30T13:02:34.734Z,22.40
2019-04-30T13:05:05.345Z,22.47
2019-04-30T13:07:36.286Z,22.30
2019-04-30T13:10:08.003Z,23.40
2019-04-30T13:12:39.276Z,22.10
2019-04-30T13:15:11.507Z,22.33
2019-04-30T13:17:41.791Z,26.13
2019-04-30T13:20:21.062Z,25.90
2019-04-30T13:22:45.534Z,23.87
2019-04-30T13:25:29.549Z,23.33
2019-04-30T13:27:51.714Z,23.20
2019-04-30T13:30:24.292Z,23.23
2019-04-30T13:33:04.915Z,24.60
2019-04-30T13:35:35.480Z,24.50
2019-04-30T13:38:12.904Z,23.93
2019-04-30T13:41:08.870Z,23.97
2019-04-30T13:43:58.806Z,23.83
2019-04-30T13:46:29.296Z,24.43
2019-04-30T13:48:59.572Z,24.03
2019-04-30T13:51:30.136Z,23.43
2019-04-30T13:54:01.390Z,24.30
2019-04-30T13:56:31.987Z,24.77
2019-04-30T13:59:02.176Z,24.47
2019-04-30T14:01:32.745Z,24.77
2019-04-30T14:04:12.508Z,25.47
2019-04-30T14:06:54.316Z,24.73
2019-04-30T14:09:27.406Z,25.03
2019-04-30T14:11:57.988Z,25.83
2019-04-30T14:14:29.656Z,25.73
2019-04-30T14:17:01.226Z,25.30
2019-04-30T14:19:32.707Z,25.90
2019-04-30T14:22:02.953Z,25.33
2019-04-30T14:24:33.252Z,25.67
2019-04-30T14:27:03.883Z,26.27
2019-04-30T14:29:34.107Z,27.43
2019-04-30T14:32:04.976Z,27.90
2019-04-30T14:34:35.339Z,24.60
2019-04-30T14:37:06.128Z,26.77
2019-04-30T14:39:36.517Z,26.63
2019-04-30T14:42:10.274Z,25.37
2019-04-30T14:44:40.375Z,25.70
2019-04-30T14:47:26.780Z,25.77
2019-04-30T14:50:10.562Z,24.83
2019-04-30T14:53:02.973Z,27.63
2019-04-30T14:55:50.903Z,25.70
2019-04-30T14:58:39.341Z,25.87
2019-04-30T15:01:22.161Z,26.23
2019-04-30T15:03:52.404Z,26.13
2019-04-30T15:06:22.639Z,25.40
2019-04-30T15:08:52.874Z,25.33
2019-04-30T15:11:23.770Z,24.87
2019-04-30T15:13:53.983Z,26.13
2019-04-30T15:16:24.229Z,25.43
2019-04-30T15:18:54.572Z,25.80
2019-04-30T15:21:25.110Z,25.93
2019-04-30T15:24:12.935Z,25.73
2019-04-30T15:26:44.572Z,24.83
2019-04-30T15:29:16.176Z,25.43
2019-04-30T15:31:46.667Z,24.90
2019-04-30T15:34:19.103Z,25.23
2019-04-30T15:36:49.329Z,25.47
2019-04-30T15:39:44.565Z,25.50
2019-04-30T15:42:16.749Z,25.87
2019-04-30T15:44:47.028Z,26.57
2019-04-30T15:47:18.913Z,25.63
2019-04-30T15:49:49.420Z,26.10
2019-04-30T15:52:19.617Z,26.20
2019-04-30T15:54:50.137Z,26.30
2019-04-30T15:57:20.328Z,25.70
2019-04-30T15:59:50.538Z,25.47
2019-04-30T16:02:32.871Z,26.37
2019-04-30T16:05:15.738Z,25.20
2019-04-30T16:08:05.391Z,24.33
2019-04-30T16:11:08.251Z,25.30
2019-04-30T16:13:58.531Z,26.37
2019-04-30T16:16:33.140Z,24.33
2019-04-30T16:19:03.532Z,24.80
2019-04-30T16:21:34.121Z,24.97
2019-04-30T16:24:04.801Z,23.33
2019-04-30T16:26:47.227Z,23.50
2019-04-30T16:29:09.836Z,23.73
2019-04-30T16:31:40.004Z,22.77
2019-04-30T16:34:10.678Z,22.27
2019-04-30T16:36:40.950Z,21.80
2019-04-30T16:39:11.240Z,20.97
2019-04-30T16:41:41.739Z,21.33
2019-04-30T16:44:11.929Z,21.10
2019-04-30T16:46:42.141Z,19.23
2019-04-30T16:49:13.525Z,19.13
2019-04-30T16:51:44.451Z,18.77
2019-04-30T16:54:15.004Z,18.00
2019-04-30T16:56:45.229Z,18.03
2019-04-30T16:59:18.148Z,17.40
2019-04-30T17:01:57.141Z,17.33
2019-04-30T17:04:29.726Z,17.23
2019-04-30T17:07:05.881Z,18.10
2019-04-30T17:09:44.339Z,18.40
2019-04-30T17:12:39.773Z,18.83
2019-04-30T17:15:19.353Z,18.73
2019-04-30T17:17:49.999Z,18.37
2019-04-30T17:20:20.886Z,17.80
2019-04-30T17:22:51.467Z,18.63
2019-04-30T17:25:22.393Z,18.77
2019-04-30T17:27:52.621Z,18.80
2019-04-30T17:30:23.245Z,17.43
2019-04-30T17:32:53.477Z,18.40
2019-04-30T17:35:23.706Z,17.70
2019-04-30T17:37:54.222Z,17.33
2019-04-30T17:40:25.179Z,16.70
2019-04-30T17:42:55.654Z,16.80
2019-04-30T17:45:25.926Z,18.90
2019-04-30T17:47:56.150Z,18.67
2019-04-30T17:50:26.468Z,18.87
2019-04-30T17:52:56.717Z,16.80
2019-04-30T17:55:28.683Z,18.27
2019-04-30T17:57:58.943Z,18.60
2019-04-30T18:00:31.346Z,18.57
2019-04-30T18:03:03.155Z,18.70
2019-04-30T18:05:33.606Z,18.27
2019-04-30T18:08:04.239Z,18.53
2019-04-30T18:10:35.125Z,18.60
2019-04-30T18:13:06.132Z,18.73
2019-04-30T18:15:36.473Z,18.97
2019-04-30T18:18:13.776Z,19.33
2019-04-30T18:20:52.593Z,19.03
2019-04-30T18:23:36.730Z,21.07
2019-04-30T18:26:10.881Z,20.57
2019-04-30T18:28:41.422Z,20.47
2019-04-30T18:31:11.679Z,19.50
2019-04-30T18:33:41.960Z,21.40
2019-04-30T18:36:12.232Z,19.93
2019-04-30T18:38:42.453Z,20.80
2019-04-30T18:41:12.670Z,21.63
2019-04-30T18:43:42.987Z,22.30
2019-04-30T18:46:13.184Z,22.53
2019-04-30T18:48:43.690Z,22.00
2019-04-30T18:51:30.009Z,22.50
2019-04-30T18:53:47.118Z,21.73
2019-04-30T18:56:19.142Z,22.30
2019-04-30T18:58:49.472Z,21.07
2019-04-30T19:01:20.113Z,22.73
2019-04-30T19:03:50.817Z,24.63
2019-04-30T19:06:26.248Z,22.37
2019-04-30T19:09:29.730Z,21.70
2019-04-30T19:12:08.563Z,23.37
2019-04-30T19:14:59.108Z,21.30
2019-04-30T19:17:55.003Z,21.27
2019-04-30T19:20:29.764Z,20.60
2019-04-30T19:23:00.327Z,20.30
2019-04-30T19:25:30.608Z,20.37
2019-04-30T19:28:11.627Z,21.43
2019-04-30T19:30:32.796Z,22.03
2019-04-30T19:33:03.044Z,21.67
2019-04-30T19:35:33.256Z,22.63
2019-04-30T19:38:03.779Z,22.73
2019-04-30T19:40:34.002Z,23.40
2019-04-30T19:43:04.273Z,23.63
2019-04-30T19:45:35.276Z,23.37
2019-04-30T19:48:05.536Z,23.00
2019-04-30T19:50:36.339Z,23.97
2019-04-30T19:53:08.766Z,23.70
2019-04-30T19:55:39.423Z,24.23
2019-04-30T19:58:11.903Z,23.27
2019-04-30T20:00:41.748Z,23.27
2019-04-30T20:03:11.971Z,23.77
2019-04-30T20:05:42.221Z,26.27
2019-04-30T20:08:13.118Z,26.90
2019-04-30T20:10:43.375Z,24.70
2019-04-30T20:13:14.288Z,24.50
2019-04-30T20:15:44.515Z,24.27
2019-04-30T20:18:14.732Z,26.27
2019-04-30T20:20:46.998Z,23.60
2019-04-30T20:23:17.196Z,25.00
2019-04-30T20:25:47.445Z,25.10
2019-04-30T20:28:17.636Z,24.73
2019-04-30T20:30:48.989Z,25.73
2019-04-30T20:33:19.330Z,26.13
2019-04-30T20:35:49.657Z,23.73
2019-04-30T20:38:37.559Z,25.00
2019-04-30T20:41:09.266Z,25.40
2019-04-30T20:43:39.600Z,25.40
2019-04-30T20:46:10.077Z,26.43
2019-04-30T20:48:41.146Z,25.47
2019-04-30T20:51:11.561Z,24.90
2019-04-30T20:53:41.758Z,25.13
2019-04-30T20:56:11.991Z,26.17
2019-04-30T20:58:54.900Z,25.57
2019-04-30T21:01:14.143Z,26.20
2019-04-30T21:03:44.347Z,26.47
2019-04-30T21:06:16.295Z,26.23
2019-04-30T21:08:46.929Z,28.30
2019-04-30T21:11:19.209Z,26.67
2019-04-30T21:13:49.228Z,24.77
2019-04-30T21:16:19.747Z,26.93
2019-04-30T21:18:50.195Z,27.23
2019-04-30T21:21:20.589Z,26.97
2019-04-30T21:23:50.870Z,26.90
2019-04-30T21:26:21.070Z,26.50
2019-04-30T21:28:51.265Z,26.57
2019-04-30T21:31:49.388Z,26.70
2019-04-30T21:34:36.064Z,28.00
2019-04-30T21:37:06.378Z,28.23
2019-04-30T21:39:36.605Z,30.10
2019-04-30T21:42:08.833Z,27.43
2019-04-30T21:44:39.086Z,26.60
2019-04-30T21:47:09.313Z,28.57
2019-04-30T21:49:39.500Z,28.63
2019-04-30T21:52:10.130Z,27.70
2019-04-30T21:54:40.238Z,28.70
2019-04-30T21:57:10.380Z,28.03
2019-04-30T21:59:40.673Z,28.50
2019-04-30T22:02:11.658Z,28.23
2019-04-30T22:04:41.880Z,28.60
2019-04-30T22:07:12.150Z,28.90
2019-04-30T22:09:42.540Z,28.90
2019-04-30T22:12:12.804Z,28.60
2019-04-30T22:14:43.013Z,29.77
2019-04-30T22:17:13.270Z,27.43
2019-04-30T22:19:43.957Z,30.13
2019-04-30T22:22:14.263Z,30.90
2019-04-30T22:24:44.811Z,28.97
2019-04-30T22:27:17.394Z,30.33
2019-04-30T22:29:46.977Z,28.87
2019-04-30T22:32:17.188Z,29.33
2019-04-30T22:34:47.655Z,30.13
2019-04-30T22:37:19.517Z,29.03
2019-04-30T22:39:55.951Z,30.13
2019-04-30T22:42:31.923Z,30.43
2019-04-30T22:45:04.173Z,30.23
2019-04-30T22:47:34.380Z,30.10
2019-04-30T22:50:06.240Z,31.33
2019-04-30T22:52:36.424Z,30.57
2019-04-30T22:55:07.609Z,32.13
2019-04-30T22:57:37.782Z,30.90
2019-04-30T23:00:12.659Z,30.20
2019-04-30T23:02:59.454Z,31.80
2019-04-30T23:05:30.516Z,30.43
2019-04-30T23:08:01.403Z,32.30
2019-04-30T23:10:31.679Z,30.10
2019-04-30T23:13:02.883Z,32.63
2019-04-30T23:15:33.101Z,32.10
2019-04-30T23:18:03.431Z,32.97
2019-04-30T23:20:33.617Z,30.33
2019-04-30T23:23:03.845Z,32.30
2019-04-30T23:25:35.088Z,31.27
2019-04-30T23:28:05.306Z,31.03
2019-04-30T23:30:35.764Z,33.07
2019-04-30T23:33:06.327Z,31.63
2019-04-30T23:35:36.571Z,31.37
2019-04-30T23:38:07.143Z,33.57
2019-04-30T23:40:51.140Z,29.13
2019-04-30T23:43:21.539Z,29.70
2019-04-30T23:45:51.740Z,30.43
2019-04-30T23:48:22.049Z,31.90
2019-04-30T23:50:52.315Z,31.83
2019-04-30T23:53:22.897Z,32.30
2019-04-30T23:55:53.560Z,29.50
2019-04-30T23:58:23.773Z,30.73
